Address 0xa8241fdfac07beaa5cc7e8f32f8e9b7f0525017e 5

Txn Hash Method
Block
From
To
Value [Txn Fee]
0x7c41b636ac4b4d0cdaf2148f006d74485b334bfd895c419ab08aa83079075c01Approve111341562022-07-01 1:13:298 hrs 44 mins ago0xa8241fdfac07beaa5cc7e8f32f8e9b7f0525017eOUT 0xb7c25245ac2798c98e9f08ab494dd6bcbebbc12a0 AVAX0.0024645 50
0xa86a0e3013610aff9727b308f6964a531893c36236aa706ea435511504d7ad2e0xb617f0c6111341332022-07-01 1:12:208 hrs 45 mins ago0xa8241fdfac07beaa5cc7e8f32f8e9b7f0525017eOUT0xe6aa8c82da60ca55cb68c1bd7539ad4f3cbc74820 AVAX0.01102413695 27.425
0xdfa596db03c5ae399ba99b19951992a0f78bf11684c5338feba9688062b435b50xb617f0c6111058642022-06-30 6:03:351 day 3 hrs ago0xa8241fdfac07beaa5cc7e8f32f8e9b7f0525017eOUT0xe6aa8c82da60ca55cb68c1bd7539ad4f3cbc74820 AVAX0.004653501425 27.425
0x94f67b9fb06718f3bc7908275c3d59f9bb333948a99298a7bfab43b5615121720xb617f0c6111053202022-06-30 5:44:091 day 4 hrs ago0xa8241fdfac07beaa5cc7e8f32f8e9b7f0525017eOUT0xe6aa8c82da60ca55cb68c1bd7539ad4f3cbc74820 AVAX0.005973082725 27.425
0x008daa23a8bf72678cfaa885b2021c59415acffad0b9aa7425f109e4f193f91c0xb617f0c6111052722022-06-30 5:42:281 day 4 hrs ago0xa8241fdfac07beaa5cc7e8f32f8e9b7f0525017eOUT0xe6aa8c82da60ca55cb68c1bd7539ad4f3cbc74820 AVAX0.004458827033 27.35225
0xa12700b26381673d8adab89d1cdb32d2dd31aa37a536cff842633da87e9e2fed0xb617f0c6108943542022-06-22 6:37:119 days 3 hrs ago0xa8241fdfac07beaa5cc7e8f32f8e9b7f0525017eOUT0xe6aa8c82da60ca55cb68c1bd7539ad4f3cbc74820 AVAX0.010939090405 28.42252375
0x608f8a5aab960b6cce561b8d6ef51e43aaafc3b084d8b21d2fa0507de12c12ce0xb617f0c6108558222022-06-20 15:00:0910 days 18 hrs ago0xa8241fdfac07beaa5cc7e8f32f8e9b7f0525017eOUT0xe6aa8c82da60ca55cb68c1bd7539ad4f3cbc74820 AVAX0.0119989239 29.85
0x445116c970cdbef57589e501bf596905cef49c5079648231f7dc37fab1d63549Approve108557862022-06-20 14:58:2910 days 18 hrs ago0xa8241fdfac07beaa5cc7e8f32f8e9b7f0525017eOUT0x1ad483798422423e3471d2fa8a7ef6eb83bd49260 AVAX0.001402557376 29.7045
0x4c1378684cca1825d2474d3bfa304c88aa314292a5a098d464d2c26fad085b540xb617f0c6108555632022-06-20 14:47:2110 days 19 hrs ago0xa8241fdfac07beaa5cc7e8f32f8e9b7f0525017eOUT0xe6aa8c82da60ca55cb68c1bd7539ad4f3cbc74820 AVAX0.01055516945 27.425
0xba06689d1dbee9160ac5b281f3e5f1580818a3e877f3a1969b3f0809652fe2f80xb617f0c6108554902022-06-20 14:43:5110 days 19 hrs ago0xa8241fdfac07beaa5cc7e8f32f8e9b7f0525017eOUT0xe6aa8c82da60ca55cb68c1bd7539ad4f3cbc74820 AVAX0.01055516945 27.425
0x371bc8cbdb59e46bbe79afa77af99fc3aa89b3130a6cc4849c99a0229606549fApprove107583002022-06-17 6:26:5614 days 3 hrs ago0xa8241fdfac07beaa5cc7e8f32f8e9b7f0525017eOUT0x1ad483798422423e3471d2fa8a7ef6eb83bd49260 AVAX0.00236145 50
0x8452b0b9f2c1f6a3bf673705cde28b87e5068eb81c9703ebcd6c288bc85da958Approve107552382022-06-17 3:11:4614 days 6 hrs ago0xa8241fdfac07beaa5cc7e8f32f8e9b7f0525017eOUT 0xc4129a3d3f495442f3e58e914352eebb84df68c20 AVAX0.0024645 50
0xac7b7baae91674eff168f284800e0925e0a13a18c97244a6a7870cc2ab6cab2f0xb617f0c6107552222022-06-17 3:10:3214 days 6 hrs ago0xa8241fdfac07beaa5cc7e8f32f8e9b7f0525017eOUT0xe6aa8c82da60ca55cb68c1bd7539ad4f3cbc74820 AVAX0.0125093589 29.85
0x83e6ca4b00aabc7e6ba28af2c7299b58cf06df5abef37d6fea76a48f9b3418d3Approve107552112022-06-17 3:09:3814 days 6 hrs ago0xa8241fdfac07beaa5cc7e8f32f8e9b7f0525017eOUT0xf11c7e4ce4846c7cc0669105f8358612d0e1f5930 AVAX0.0012512505 26.5
0xf3826d9c1e1aba5d0cfa7c9e59d6b1a00fad475450e4002c39322ef8573dd1250x2ea3ad0c107032972022-06-15 8:48:0816 days 1 hr ago0xa8241fdfac07beaa5cc7e8f32f8e9b7f0525017eOUT0x5e60105cd7c7d2b28242948addb0db733f5e34490 AVAX0.01277027525
0x9295aff1c287db2296d3586b1aa948069bff30e6bb193f87ec1c4020851b38e20x2ea3ad0c107032942022-06-15 8:48:0016 days 1 hr ago0xa8241fdfac07beaa5cc7e8f32f8e9b7f0525017eOUT0x5e60105cd7c7d2b28242948addb0db733f5e34490 AVAX0.01277027525
0xecb3365dfd5a40499d93a75edca03807ce0f43cef641dcf2ae3f0432c4ae06a40x2ea3ad0c107032912022-06-15 8:47:5416 days 1 hr ago0xa8241fdfac07beaa5cc7e8f32f8e9b7f0525017eOUT0x5e60105cd7c7d2b28242948addb0db733f5e34490 AVAX0.01278447525
0x341f192f04bed781d4e34a65af4ade45f558bcb18539a48dbbe092a3b63b905c0x2ea3ad0c107032872022-06-15 8:47:4616 days 1 hr ago0xa8241fdfac07beaa5cc7e8f32f8e9b7f0525017eOUT0x5e60105cd7c7d2b28242948addb0db733f5e34490 AVAX0.01278447525
0xcd0a2ad1a287abb975cae3184d26887634aaad87fffce4e7e430cfe48350593d0x2ea3ad0c107032842022-06-15 8:47:4016 days 1 hr ago0xa8241fdfac07beaa5cc7e8f32f8e9b7f0525017eOUT0x5e60105cd7c7d2b28242948addb0db733f5e34490 AVAX0.01278447525
0x105d658261940a647492508c1824ae619302f40bf80397f191d83bfa1e62f6dd0x2ea3ad0c107032812022-06-15 8:47:3316 days 1 hr ago0xa8241fdfac07beaa5cc7e8f32f8e9b7f0525017eOUT0x5e60105cd7c7d2b28242948addb0db733f5e34490 AVAX0.01278447525
0x4472356f2b75ae915f2359302ae77f625d3566082e9bf668a1f61df59f94ca740x2ea3ad0c107032792022-06-15 8:47:2916 days 1 hr ago0xa8241fdfac07beaa5cc7e8f32f8e9b7f0525017eOUT0x5e60105cd7c7d2b28242948addb0db733f5e34490 AVAX0.01277057525
0xaf105de550db077f0c2b9010e6bbea98f28e7be212b15c470a97af4efa53dda90x2ea3ad0c107032762022-06-15 8:47:2316 days 1 hr ago0xa8241fdfac07beaa5cc7e8f32f8e9b7f0525017eOUT0x5e60105cd7c7d2b28242948addb0db733f5e34490 AVAX0.01277057525
0x90769e40a102c41ca8bbf0c2a3588acd542fae17b9c207a1f6fc6d038d0261a30x2ea3ad0c107032722022-06-15 8:47:1516 days 1 hr ago0xa8241fdfac07beaa5cc7e8f32f8e9b7f0525017eOUT0x5e60105cd7c7d2b28242948addb0db733f5e34490 AVAX0.01278477525
0x3415d745d0e71390dedc010d30e23ec0338c5406d04567b4fa03a99d65b04f310x2ea3ad0c107032682022-06-15 8:47:0716 days 1 hr ago0xa8241fdfac07beaa5cc7e8f32f8e9b7f0525017eOUT0x5e60105cd7c7d2b28242948addb0db733f5e34490 AVAX0.01278477525
0xa1816715e138b8a9a24c15b0b55d77056c92b4be434befec7cb637e2cd1b05650x2ea3ad0c107032652022-06-15 8:47:0116 days 1 hr ago0xa8241fdfac07beaa5cc7e8f32f8e9b7f0525017eOUT0x5e60105cd7c7d2b28242948addb0db733f5e34490 AVAX0.01278477525
[ Download CSV Export 
Parent Txn Hash Block From To Value
Loading

Contract Name:
0

Compiler Version
0

Optimization Enabled:
0

Other Settings:
-NA-
Block Transaction Gas Used Reward
Age Block Fee Address BC Fee Address Voting Power Jailed Incoming
Block Uncle Number Difficulty Gas Used Reward
Loading